Latest Coastal Weather Observations for Redcliffe

IDQ60701

Issued at 1:43 am EST Friday 3 February 2023 (issued every 10 minutes, with the page automatically refreshed every 10 minutes)

About coastal observations | Map of coastal stations | Coastal observations for QLD | Marine services | Other Formats
Station Details ID: 040958 Name: REDCLIFFE Lat: -27.22 Lon: 153.09 Height: 12.6 m
Data from the previous 72 hours. | See also: Recent months at Redcliffe
Date/Time
EST
Wind Sea
Height
m
Swell Vis
km
Cloud Weather Temp
°C
Press
MSL
hPa
Rain since
9am
mm
Dir  Spd
kts
Gust
kts
Height
m
Period
s
Dir
03/01:30am W 4 5 - - - - - - - 24.9 997.3 0.0
03/01:00am WNW 5 7 - - - - - - - 25.0 997.5 0.0
03/12:30am W 5 7 - - - - - - - 25.1 997.8 0.0
03/12:00am W 6 7 - - - - - - - 25.3 998.0 0.0
 
Date/Time
EST
Wind Sea
Height
m
Swell Vis
km
Cloud Weather Temp
°C
Press
MSL
hPa
Rain since
9am
mm
Dir  Spd
kts
Gust
kts
Height
m
Period
s
Dir
02/11:30pm WNW 5 7 - - - - - - - 25.5 998.5 0.0
02/11:00pm WSW 5 7 - - - - - - - 25.6 998.9 0.0
02/10:30pm CALM 0 0 - - - - - - - 25.8 999.2 0.0
02/10:00pm ENE 3 4 - - - - - - - 25.8 999.3 0.0
02/09:30pm E 3 4 - - - - - - - 26.0 999.5 0.0
02/09:00pm E 5 6 - - - - - - - 26.2 999.7 0.0
02/08:30pm ENE 7 8 - - - - - - - 26.4 999.7 0.0
02/08:00pm ENE 8 10 - - - - - - - 26.4 999.2 0.0
02/07:30pm E 10 14 - - - - - - - 26.6 999.1 0.0
02/07:00pm E 10 12 - - - - - - - 26.6 998.6 0.0
02/06:30pm E 9 11 - - - - - - - 26.6 998.4 0.0
02/06:00pm E 8 9 - - - - - - - 26.6 998.1 0.0
02/05:30pm E 9 12 - - - - - - - 26.7 998.3 0.0
02/05:00pm E 15 17 - - - - - - - 26.8 997.6 0.0
02/04:30pm ESE 15 17 - - - - - - - 27.3 997.3 0.0
02/04:00pm ESE 13 16 - - - - - - - 27.2 997.5 0.0
02/03:30pm E 15 17 - - - - - - - 27.4 997.6 0.0
02/03:00pm ESE 15 17 - - - - - - - 28.0 997.8 0.0
02/02:30pm ESE 15 16 - - - - - - - 28.4 998.1 0.0
02/02:00pm ESE 14 16 - - - - - - - 29.2 998.4 0.0
02/01:30pm ESE 13 15 - - - - - - - 29.8 998.6 0.0
02/01:00pm ESE 11 14 - - - - - - - 29.2 999.2 0.0
02/12:30pm ESE 9 10 - - - - - - - 29.4 999.8 0.0
02/12:00pm ESE 8 9 - - - - - - - 29.7 1000.3 0.0
02/11:30am SE 9 10 - - - - - - - 28.8 1000.6 0.0
02/11:00am SE 9 10 - - - - - - - 29.8 1001.1 0.0
02/10:30am SSE 9 10 - - - - - - - 28.9 1001.3 0.0
02/10:00am SSE 11 13 - - - - - - - 29.4 1001.5 0.0
02/09:30am SSE 11 13 - - - - - - - 29.3 1001.5 0.0
02/09:00am SSE 11 13 - - - - - - - 29.2 1001.6 0.0
02/08:30am SSE 11 13 - - - - - - - 28.0 1001.7 0.0
02/08:00am SE 11 12 - - - - - - - 27.4 1002.0 0.0
02/07:30am SE 11 13 - - - - - - - 27.2 1001.9 0.0
02/07:00am SE 12 14 - - - - - - - 27.0 1001.8 0.0
02/06:30am SE 13 15 - - - - - - - 26.4 1001.3 0.0
02/06:00am SE 13 15 - - - - - - - 26.1 1001.2 0.0
02/05:30am SE 13 15 - - - - - - - 26.0 1000.8 0.0
02/05:00am SE 12 14 - - - - - - - 25.9 1000.8 0.0
02/04:30am SE 13 14 - - - - - - - 25.9 1000.5 0.0
02/04:00am SE 11 14 - - - - - - - 26.0 1000.3 0.0
02/03:30am SE 13 15 - - - - - - - 26.0 1000.3 0.0
02/03:00am SE 13 15 - - - - - - - 26.0 1000.5 0.0
02/02:30am SE 14 16 - - - - - - - 26.0 1000.6 0.0
02/02:00am SE 15 17 - - - - - - - 26.1 1000.9 0.0
02/01:30am SE 15 18 - - - - - - - 26.3 1001.0 0.0
02/01:00am SE 13 15 - - - - - - - 26.3 1001.4 0.0
02/12:30am SE 14 15 - - - - - - - 26.5 1002.0 0.0
02/12:00am SE 14 17 - - - - - - - 26.5 1001.9 0.0
 
Date/Time
EST
Wind Sea
Height
m
Swell Vis
km
Cloud Weather Temp
°C
Press
MSL
hPa
Rain since
9am
mm
Dir  Spd
kts
Gust
kts
Height
m
Period
s
Dir
01/11:30pm SE 15 16 - - - - - - - 26.6 1002.1 0.0
01/11:00pm SE 9 11 - - - - - - - 26.6 1002.4 0.0
01/10:30pm SE 8 10 - - - - - - - 26.7 1002.4 0.0
01/10:00pm ESE 6 7 - - - - - - - 26.9 1002.5 0.0
01/09:30pm E 7 8 - - - - - - - 27.1 1002.4 0.0
01/09:00pm E 7 8 - - - - - - - 27.1 1002.3 0.0
01/08:30pm ENE 7 8 - - - - - - - 27.1 1002.0 0.0
01/08:00pm NE 7 8 - - - - - - - 27.3 1001.7 0.0
01/07:30pm NE 7 9 - - - - - - - 27.4 1001.4 0.0
01/07:00pm ENE 7 9 - - - - - - - 27.4 1001.2 0.0
01/06:30pm NE 8 10 - - - - - - - 27.7 1000.6 0.0
01/06:00pm NE 11 14 - - - - - - - 27.8 1000.4 0.0
01/05:30pm NE 13 16 - - - - - - - 28.2 1000.0 0.0
01/05:00pm NE 12 14 - - - - - - - 28.8 999.6 0.0
01/04:30pm NE 15 17 - - - - - - - 29.1 999.4 0.0
01/04:00pm NE 15 17 - - - - - - - 30.9 998.9 0.0
01/03:30pm NE 14 16 - - - - - - - 30.8 998.8 0.0
01/03:00pm NE 13 16 - - - - - - - 31.4 998.9 0.0
01/02:30pm NE 15 17 - - - - - - - 30.7 999.2 0.0
01/02:00pm NE 16 18 - - - - - - - 30.5 999.5 0.0
01/01:30pm NE 16 18 - - - - - - - 31.5 999.8 0.0
01/01:00pm NE 14 16 - - - - - - - 31.9 1000.2 0.0
01/12:30pm NE 13 15 - - - - - - - 31.9 1000.7 0.0
01/12:00pm ENE 14 15 - - - - - - - 30.2 1000.9 0.0
01/11:30am NE 13 14 - - - - - - - 30.6 1001.1 0.0
01/11:00am NE 9 11 - - - - - - - 32.1 1001.3 0.0
01/10:30am SE 6 9 - - - - - - - 30.5 1001.6 0.0
01/10:00am NW 9 14 - - - - - - - 31.5 1001.7 0.0
01/09:30am NNE 7 10 - - - - - - - 30.4 1001.8 0.0
01/09:00am NE 8 9 - - - - - - - 29.2 1002.0 0.0
01/08:30am N 6 8 - - - - - - - 28.5 1002.0 0.0
01/08:00am N 8 9 - - - - - - - 28.2 1002.1 0.0
01/07:30am N 8 10 - - - - - - - 27.9 1002.1 0.0
01/07:00am NNW 7 9 - - - - - - - 27.1 1002.0 0.0
01/06:30am N 7 9 - - - - - - - 26.2 1001.9 0.0
01/06:00am NNW 5 6 - - - - - - - 25.7 1001.6 0.0
01/05:30am NNW 5 7 - - - - - - - 25.6 1001.3 0.0
01/05:00am N 5 8 - - - - - - - 25.6 1001.1 0.0
01/04:30am N 7 9 - - - - - - - 25.7 1001.0 0.0
01/04:00am NNW 6 8 - - - - - - - 25.8 1000.8 0.0
01/03:30am N 6 9 - - - - - - - 25.8 1000.7 0.0
01/03:00am N 7 9 - - - - - - - 25.8 1000.7 0.0
01/02:30am NNW 6 8 - - - - - - - 25.5 1000.7 0.0
01/02:00am N 5 6 - - - - - - - 25.4 1000.9 0.0
01/01:30am NW 3 6 - - - - - - - 25.5 1000.8 0.0
01/01:00am NNW 8 11 - - - - - - - 26.0 1001.2 0.0
01/12:30am NNW 7 10 - - - - - - - 25.8 1001.6 0.0
01/12:00am NNW 8 12 - - - - - - - 26.1 1001.9 0.0
 
Date/Time
EST
Wind Sea
Height
m
Swell Vis
km
Cloud Weather Temp
°C
Press
MSL
hPa
Rain since
9am
mm
Dir  Spd
kts
Gust
kts
Height
m
Period
s
Dir
31/11:30pm NW 6 8 - - - - - - - 26.6 1001.9 0.0
31/11:00pm NNW 9 14 - - - - - - - 27.0 1002.1 0.0
31/10:30pm W 5 7 - - - - - - - 27.7 1002.6 0.0
31/10:00pm WNW 4 5 - - - - - - - 28.0 1002.4 0.0
31/09:30pm NNW 6 9 - - - - - - - 28.5 1002.3 0.0
31/09:00pm WNW 6 8 - - - - - - - 28.4 1002.2 0.0
31/08:30pm N 10 15 - - - - - - - 28.6 1001.7 0.0
31/08:00pm N 10 14 - - - - - - - 28.5 1001.1 0.0
31/07:30pm N 19 22 - - - - - - - 28.2 1001.0 0.0
31/07:00pm N 22 27 - - - - - - - 28.2 1000.7 0.0
31/06:30pm N 23 29 - - - - - - - 28.3 1000.3 0.0
31/06:00pm NNE 23 27 - - - - - - - 28.5 1000.3 0.0
31/05:30pm NNE 23 27 - - - - - - - 28.6 1000.0 0.0
31/05:00pm NNE 23 27 - - - - - - - 28.5 1000.0 0.0
31/04:30pm NNE 25 29 - - - - - - - 28.7 999.7 0.0
31/04:00pm NNE 24 29 - - - - - - - 29.0 999.7 0.0
31/03:30pm NNE 21 26 - - - - - - - 29.7 1000.1 0.0
31/03:00pm NNE 21 26 - - - - - - - 30.0 1000.3 0.0
31/02:30pm NNE 19 23 - - - - - - - 31.1 1000.5 0.0
31/02:00pm NE 17 20 - - - - - - - 34.7 1000.9 0.0
31/01:30pm NNE 14 21 - - - - - - - 34.2 1001.5 0.0
31/01:00pm N 10 17 - - - - - - - 33.9 1002.1 0.0
31/12:30pm NE 10 13 - - - - - - - 32.3 1002.8 0.0
31/12:00pm NE 10 14 - - - - - - - 32.8 1003.3 0.0
31/11:30am ENE 8 9 - - - - - - - 31.7 1003.9 0.0
31/11:00am ENE 7 9 - - - - - - - 30.5 1004.4 0.0
31/10:30am ENE 9 9 - - - - - - - 30.1 1004.9 0.0
31/10:00am NE 7 10 - - - - - - - 29.3 1005.4 0.0
31/09:30am NNW 6 8 - - - - - - - 28.7 1005.9 0.0
31/09:00am NNW 7 10 - - - - - - - 27.8 1006.2 3.4
31/08:30am N 9 16 - - - - - - - 26.8 1006.1 3.4
31/08:00am N 9 14 - - - - - - - 26.3 1006.3 3.4
31/07:30am N 9 14 - - - - - - - 25.4 1006.4 3.4
31/07:00am NNW 6 9 - - - - - - - 24.6 1006.5 3.4
31/06:30am N 8 11 - - - - - - - 24.1 1006.3 3.4
31/06:00am N 7 9 - - - - - - - 23.8 1006.3 3.4
31/05:30am N 10 12 - - - - - - - 23.7 1006.0 3.4
31/05:00am N 10 13 - - - - - - - 23.8 1005.8 3.4
31/04:30am NNW 8 10 - - - - - - - 23.6 1005.8 3.4
31/04:00am N 8 10 - - - - - - - 23.8 1005.7 3.4
31/03:30am NNW 9 13 - - - - - - - 23.4 1005.8 3.4
31/03:00am N 7 10 - - - - - - Recent precip. 23.4 1006.1 3.4
31/02:30am N 11 17 - - - - - - - 23.1 1006.5 3.2
31/02:00am NNW 8 11 - - - - - - - 23.4 1007.1 2.2

Other formats

Comma delimited format used in spreadsheet applications
http://www.bom.gov.au/fwo/IDQ60701/IDQ60701.95591.axf

JavaScript Object Notation format (JSON) in row-major order
http://www.bom.gov.au/fwo/IDQ60701/IDQ60701.95591.json

Data quality

Most of these data are generated automatically and are frequently updated. Quality checks on data are not normally performed. It is possible for incorrect values to appear. Refer to information at About Latest Weather Observations and please check the disclaimer before using these data.